METAR AND TAF INFORMATION
METAR FOR SKMR
ADDS - METARS form results

(2125 UTC 17 November 2018)
Data provider http://aviationweather.gov/metar/data/
 
METAR text: SKMR 172100Z 00000KT 9999 5000SE VCSH SCT022 FEW025TCU SCT100 33/27 A2968 RMK TCU VCSH/SE METAR
Conditions at: SKMR (MONTERIA/LOS GAR, CO) observed 2100 UTC 17 November 2018
Temperature: 33.0°C (91°F)
Dewpoint: 27.0°C (81°F) [RH = 71%]
Pressure (altimeter): 29.68 inches Hg (1005.2 mb)
Winds: calm
Visibility: 6 or more miles (10+ km)
Ceiling: at least 12,000 feet AGL
Clouds: scattered clouds at 2200 feet AGL
few clouds at 2500 feet AGL
scattered clouds at 10000 feet AGL
Weather: VCSH  (showers in vicinity)

 AIRPORT MAP

 RUNWAY INFORMATION
Runway 14 Runway length 6285 ft Runway width 115 ft
Runway elevation 20 ft Runway displaced threshold 0 ft Runway heading 138
Runway 32 Runway length 6285 ft Runway width 115 ft
Runway elevation 18 ft Runway displaced threshold 0 ft Runway heading 318

 AIRPORT FREQUENCIES
Type INFO Name MONTERIA F Frequency 127.5 MHZ
Type RDO Name MONTERIA R Frequency 348.8 MHZ
Type TWR Name TWR Frequency 118.1 MHZ

 AIRPORT NEAR NAVIGATION AIDS
Type VOR-DME Name Monteria Frequency 114400 KHZ

Details

Relevance in our operations!


Pilot Roster

+24


Routes

+464


Hubs

+4


Fleet

+113